Accueil
METAR-TAF:

METAR-TAF

Aéroports :

Farnborough, Angleterre

latitude: 51-17N, longitude: 000-46W, altitude: 65 m

Observation

Le bulletin a été fait il y a 16 minutes, à 02:20 UTC
Vent 3 kt de sud-ouest
Température 7°C
Humidité 81%
Pression 1025 hPa
Visibilité: 4700 m
brume sèche

METAR: EGLF 080220Z AUTO 23003KT 4700 HZ NCD 07/04 Q1025

Heure: 03:36 (02:36 UTC)

Prévision

Le bulletin a été fait il y a 5 heures et 40 minutes, à 20:56 UTC
Prévision valable du 07 à 21 UTC au 07 à 23 UTC
Vent 3 kt de direction variable
Visibilité 10 km ou plus
Quelques nuages à une hauteur de 4500 ft
Temporairement
du 07 à 21 UTC au 07 à 23 UTC
Visibilité: 4000 m
brume

TAF: EGLF 072056Z 0721/0723 VRB03KT 9999 FEW045 TEMPO 0721/0723 4000 BR

Observations et prévisions météorologiques de plus de 4000 aéroports (messages METAR et TAF).

Les stations disponibles sont représentées par des disques jaunes et rouges sur la carte.

Passer la souris dessus pour voir le nom de la station.

Cliquer dessus pour voir les observations et prévisions météorologiques.

Pour changer de carte: cliquez sur les boutons verts avec une croix noire pour zoomer, sur le bouton vert avec un tiret pour effectuer un zoom arrière, ou sur les flèches vertes pour les cartes adjacentes.


METAR-TAF: